Time;durP1;ratioP1;P1;durP2;ratioP2;P2;SDS_P1;SDS_P2;PMS_P1;PMS_P2;Temp;Humidity;BMP_temperature;BMP_pressure;BME280_temperature;BME280_humidity;BME280_pressure;Samples;Min_cycle;Max_cycle;Signal;HPM_P1;HPM_P2
2022/07/24 00:01:55;;;;;;;11.73;7.93;;;;;;;22.31;48.79;101909.22;5184751;28;20485;-80
2022/07/24 00:04:27;;;;;;;10.90;8.20;;;;;;;22.26;48.95;101911.69;5180511;28;20449;-77
2022/07/24 00:06:59;;;;;;;10.32;7.85;;;;;;;22.28;49.06;101912.31;5179053;28;20411;-75
2022/07/24 00:09:32;;;;;;;11.13;7.50;;;;;;;22.25;49.08;101912.72;5180836;28;20899;-78
2022/07/24 00:12:05;;;;;;;13.75;8.55;;;;;;;22.27;48.95;101908.81;5181076;28;20463;-81
2022/07/24 00:14:38;;;;;;;10.82;8.40;;;;;;;22.27;49.26;101918.75;5185605;28;20456;-76
2022/07/24 00:17:11;;;;;;;16.30;9.55;;;;;;;22.23;49.23;101906.69;5180185;28;20418;-80
2022/07/24 00:19:44;;;;;;;13.82;9.25;;;;;;;22.20;49.52;101899.84;5182691;28;20506;-78
2022/07/24 00:22:16;;;;;;;14.27;9.05;;;;;;;22.15;49.41;101898.78;5182455;28;20433;-79
2022/07/24 00:24:49;;;;;;;14.75;9.93;;;;;;;22.17;49.35;101902.94;5186954;28;20415;-79
2022/07/24 00:27:21;;;;;;;19.15;11.93;;;;;;;22.14;49.63;101906.00;5185232;28;20492;-79
2022/07/24 00:29:53;;;;;;;17.30;12.15;;;;;;;22.02;49.68;101888.78;5183130;28;20895;-79
2022/07/24 00:32:27;;;;;;;17.38;12.65;;;;;;;22.10;49.84;101904.75;5183687;28;20493;-78
2022/07/24 00:34:59;;;;;;;23.13;13.63;;;;;;;22.09;49.75;101914.69;5181193;28;20407;-75
2022/07/24 00:37:32;;;;;;;18.35;13.68;;;;;;;22.06;49.97;101917.78;5183998;28;20418;-77
2022/07/24 00:40:06;;;;;;;20.98;14.20;;;;;;;22.06;49.90;101907.03;5181475;28;20721;-77
2022/07/24 00:42:38;;;;;;;19.17;14.63;;;;;;;22.06;50.04;101900.81;5184192;28;20894;-76
2022/07/24 00:45:11;;;;;;;18.80;13.55;;;;;;;22.03;49.96;101910.09;5184190;28;20494;-75
2022/07/24 00:47:45;;;;;;;20.70;14.48;;;;;;;21.99;50.13;101905.31;5184104;28;20411;-78
2022/07/24 00:50:17;;;;;;;19.80;13.82;;;;;;;21.98;50.29;101901.78;5179593;28;20414;-79
2022/07/24 00:52:50;;;;;;;23.10;14.65;;;;;;;21.95;50.13;101899.50;5186958;28;20403;-79
2022/07/24 00:55:23;;;;;;;22.67;15.07;;;;;;;21.93;50.38;101901.59;5184409;28;20415;-79
2022/07/24 00:57:55;;;;;;;22.63;15.87;;;;;;;21.86;50.38;101890.78;5181876;28;20429;-78
2022/07/24 01:00:28;;;;;;;23.13;15.38;;;;;;;21.87;50.46;101905.06;5190224;28;20427;-75
2022/07/24 01:03:01;;;;;;;20.10;14.70;;;;;;;21.81;50.63;101903.16;5181442;28;20668;-76
2022/07/24 01:05:34;;;;;;;24.58;14.68;;;;;;;21.78;50.65;101903.56;5183357;28;20905;-79
2022/07/24 01:08:06;;;;;;;22.33;14.25;;;;;;;21.78;50.58;101895.50;5180607;28;20803;-79
2022/07/24 01:10:39;;;;;;;19.58;14.70;;;;;;;21.74;50.56;101891.53;5185441;28;20430;-80
2022/07/24 01:13:12;;;;;;;21.25;15.13;;;;;;;21.77;50.68;101901.88;5184861;28;20498;-77
2022/07/24 01:15:46;;;;;;;19.20;14.25;;;;;;;21.72;50.60;101898.97;5179485;28;20426;-78
2022/07/24 01:18:20;;;;;;;19.08;13.40;;;;;;;21.71;50.79;101891.91;5182081;28;20421;-78
2022/07/24 01:20:55;;;;;;;24.25;14.35;;;;;;;21.69;50.66;101894.81;5184115;28;20474;-77
2022/07/24 01:23:27;;;;;;;19.00;13.40;;;;;;;21.63;50.82;101891.06;5184636;28;20770;-77
2022/07/24 01:26:00;;;;;;;23.90;13.60;;;;;;;21.60;50.89;101878.00;5180915;28;20419;-74
2022/07/24 01:28:32;;;;;;;21.75;13.95;;;;;;;21.61;50.72;101889.59;5182587;28;20417;-78
2022/07/24 01:31:04;;;;;;;21.10;12.82;;;;;;;21.57;50.95;101874.88;5182027;28;20439;-77
2022/07/24 01:33:37;;;;;;;21.45;12.75;;;;;;;21.58;50.55;101890.81;5185505;28;20427;-76
2022/07/24 01:36:11;;;;;;;20.75;12.88;;;;;;;21.53;50.59;101877.16;5187171;28;20422;-79
2022/07/24 01:38:43;;;;;;;16.63;13.43;;;;;;;21.53;50.65;101879.84;5176524;28;20450;-80
2022/07/24 01:41:15;;;;;;;23.00;13.30;;;;;;;21.51;50.81;101873.81;5188665;28;20411;-78
2022/07/24 01:43:48;;;;;;;20.15;13.30;;;;;;;21.37;50.77;101864.03;5188958;28;20429;-76
2022/07/24 01:46:20;;;;;;;19.40;13.13;;;;;;;21.47;50.82;101879.78;5189694;28;20411;-78
2022/07/24 01:48:52;;;;;;;20.30;12.95;;;;;;;21.44;50.72;101875.63;5186392;28;20410;-77
2022/07/24 01:51:26;;;;;;;22.45;13.70;;;;;;;21.42;50.87;101878.50;5185948;28;20489;-76
2022/07/24 01:53:58;;;;;;;19.15;13.40;;;;;;;21.42;50.94;101872.31;5187364;28;20506;-77
2022/07/24 01:56:32;;;;;;;19.17;13.70;;;;;;;21.36;50.79;101859.66;5185401;28;20441;-77
2022/07/24 01:59:04;;;;;;;20.63;14.13;;;;;;;21.39;50.89;101861.94;5186491;28;20907;-78
2022/07/24 02:01:36;;;;;;;21.60;14.15;;;;;;;21.30;50.98;101863.09;5185358;28;20431;-79
2022/07/24 02:04:09;;;;;;;19.10;13.48;;;;;;;21.37;51.32;101864.84;5188197;28;20773;-79
2022/07/24 02:06:42;;;;;;;22.90;13.27;;;;;;;21.35;51.05;101866.03;5177932;28;20945;-80
2022/07/24 02:09:14;;;;;;;21.65;14.07;;;;;;;21.25;51.26;101857.50;5186132;28;20733;-78
2022/07/24 02:11:47;;;;;;;21.60;13.52;;;;;;;21.31;51.08;101865.59;5187077;28;20502;-78
2022/07/24 02:14:19;;;;;;;25.88;13.55;;;;;;;21.31;51.22;101864.78;5187360;28;20921;-77
2022/07/24 02:16:51;;;;;;;19.05;13.02;;;;;;;21.23;51.25;101851.47;5184315;28;20780;-78
2022/07/24 02:19:24;;;;;;;23.00;13.93;;;;;;;21.13;51.29;101835.72;5186634;28;20437;-77
2022/07/24 02:21:58;;;;;;;20.25;13.20;;;;;;;21.19;51.49;101845.66;5187926;28;20445;-76
2022/07/24 02:24:30;;;;;;;18.38;12.25;;;;;;;21.19;51.55;101854.56;5180606;28;20407;-76
2022/07/24 02:27:02;;;;;;;16.75;11.75;;;;;;;21.18;51.59;101844.00;5187675;28;20525;-78
2022/07/24 02:29:35;;;;;;;20.23;12.05;;;;;;;21.05;51.77;101833.97;5188561;28;20430;-77
2022/07/24 02:32:08;;;;;;;16.70;11.02;;;;;;;21.11;51.74;101838.56;5191435;28;20429;-78
2022/07/24 02:34:40;;;;;;;20.02;11.75;;;;;;;21.05;51.89;101822.41;5191984;28;20418;-77
2022/07/24 02:37:14;;;;;;;20.00;11.38;;;;;;;21.07;52.10;101836.50;5191179;28;20411;-79
2022/07/24 02:39:46;;;;;;;16.95;10.70;;;;;;;21.04;52.23;101831.50;5191852;28;20910;-78
2022/07/24 02:42:18;;;;;;;16.15;10.40;;;;;;;21.03;52.08;101830.69;5191132;28;20939;-78
2022/07/24 02:44:51;;;;;;;16.30;9.52;;;;;;;20.98;52.32;101822.38;5191614;28;20418;-78
2022/07/24 02:47:23;;;;;;;13.18;9.02;;;;;;;21.01;52.25;101821.97;5191888;28;20900;-77
2022/07/24 02:49:55;;;;;;;17.63;9.50;;;;;;;20.92;52.17;101807.03;5190838;28;20510;-78
2022/07/24 02:52:29;;;;;;;16.60;9.67;;;;;;;20.99;52.31;101815.97;5190506;28;20549;-77
2022/07/24 02:55:02;;;;;;;18.13;9.60;;;;;;;21.00;52.41;101820.31;5186397;28;20521;-76
2022/07/24 02:57:34;;;;;;;15.95;8.77;;;;;;;21.00;52.41;101814.09;5191897;28;20631;-78
2022/07/24 03:00:10;;;;;;;17.60;9.80;;;;;;;20.97;52.31;101815.34;5195444;28;20448;-79
2022/07/24 03:02:45;;;;;;;15.30;8.25;;;;;;;20.90;52.58;101803.69;5193180;28;20495;-78
2022/07/24 03:05:18;;;;;;;15.35;8.18;;;;;;;20.99;52.45;101813.28;5193671;28;20506;-80
2022/07/24 03:07:52;;;;;;;15.77;8.13;;;;;;;20.99;52.64;101815.97;5192495;28;20423;-81
2022/07/24 03:10:24;;;;;;;12.68;8.30;;;;;;;20.97;52.46;101812.66;5198162;28;20412;-79
2022/07/24 03:12:56;;;;;;;16.45;8.85;;;;;;;20.88;52.61;101789.66;5199817;28;20771;-78
2022/07/24 03:15:29;;;;;;;16.00;8.38;;;;;;;20.93;52.79;101803.31;5206087;28;20405;-82
2022/07/24 03:18:01;;;;;;;12.45;8.00;;;;;;;20.97;52.79;101809.97;5190671;28;20413;-77
2022/07/24 03:20:34;;;;;;;14.70;8.45;;;;;;;20.88;52.85;101795.03;5201941;28;20491;-80
2022/07/24 03:23:07;;;;;;;15.65;8.77;;;;;;;20.91;52.96;101800.00;5206868;28;20414;-79
2022/07/24 03:25:39;;;;;;;20.15;8.15;;;;;;;20.90;52.93;101801.88;5194182;28;20498;-80
2022/07/24 03:28:12;;;;;;;18.90;9.45;;;;;;;20.90;52.91;101799.19;5208345;28;20436;-80
2022/07/24 03:30:44;;;;;;;16.92;8.68;;;;;;;20.88;52.94;101795.03;5202056;28;20448;-82
2022/07/24 03:33:17;;;;;;;14.63;9.27;;;;;;;20.75;53.16;101773.41;5217011;28;20757;-80
2022/07/24 03:35:49;;;;;;;17.53;9.27;;;;;;;20.80;52.84;101792.47;5201996;28;20504;-79
2022/07/24 03:38:23;;;;;;;17.23;8.90;;;;;;;20.82;53.19;101795.81;5207074;28;20471;-79
2022/07/24 03:40:55;;;;;;;13.48;8.32;;;;;;;20.81;53.17;101791.44;5197203;28;20416;-82
2022/07/24 03:43:27;;;;;;;18.30;9.00;;;;;;;20.78;53.22;101794.50;5193790;28;20969;-80
2022/07/24 03:46:00;;;;;;;30.75;10.15;;;;;;;20.77;53.35;101798.22;5190029;28;20413;-79
2022/07/24 03:48:32;;;;;;;14.32;8.88;;;;;;;20.76;53.39;101792.03;5183194;28;20490;-77
2022/07/24 03:51:04;;;;;;;16.98;9.30;;;;;;;20.76;53.46;101797.41;5182469;28;20411;-78
2022/07/24 03:53:38;;;;;;;14.70;8.63;;;;;;;20.77;53.50;101787.50;5184704;28;20423;-75
2022/07/24 03:56:11;;;;;;;17.75;8.82;;;;;;;20.75;53.58;101784.16;5176657;28;20925;-79
2022/07/24 03:58:44;;;;;;;16.95;10.02;;;;;;;20.72;53.60;101796.97;5183050;28;20878;-79
2022/07/24 04:01:16;;;;;;;18.75;9.23;;;;;;;20.69;53.55;101791.97;5184631;28;20510;-78
2022/07/24 04:03:48;;;;;;;20.15;9.95;;;;;;;20.70;53.72;101795.50;5031844;28;20425;-77
2022/07/24 04:06:21;;;;;;;19.13;10.13;;;;;;;20.70;53.98;101790.13;5185339;28;20415;-78
2022/07/24 04:08:54;;;;;;;15.73;9.80;;;;;;;20.70;53.86;101798.19;5183809;28;20414;-78
2022/07/24 04:11:27;;;;;;;16.60;9.80;;;;;;;20.69;53.81;101810.78;5180023;28;20411;-80
2022/07/24 04:13:59;;;;;;;17.10;9.98;;;;;;;20.65;54.18;101801.44;5185297;28;20411;-79
2022/07/24 04:16:31;;;;;;;16.43;10.10;;;;;;;20.61;54.30;101788.59;5177646;28;20411;-76
2022/07/24 04:19:07;;;;;;;18.73;10.13;;;;;;;20.63;54.35;101792.75;5178866;28;20426;-78
2022/07/24 04:21:40;;;;;;;16.20;9.63;;;;;;;20.60;54.31;101790.47;5186033;28;20453;-80
2022/07/24 04:24:13;;;;;;;19.75;11.35;;;;;;;20.56;54.53;101789.16;5181184;28;20434;-80
2022/07/24 04:26:46;;;;;;;18.08;9.90;;;;;;;20.55;54.62;101786.69;5183002;28;20445;-80
2022/07/24 04:29:18;;;;;;;18.55;9.95;;;;;;;20.56;54.72;101797.22;5182960;28;20419;-78
2022/07/24 04:31:50;;;;;;;14.88;9.30;;;;;;;20.40;54.62;101782.19;5185380;28;20514;-79
2022/07/24 04:34:23;;;;;;;15.43;8.80;;;;;;;20.59;54.79;101796.81;5183652;28;20898;-78
2022/07/24 04:36:55;;;;;;;15.40;8.30;;;;;;;20.60;54.77;101787.78;5183918;28;20838;-79
2022/07/24 04:39:29;;;;;;;13.65;8.02;;;;;;;20.64;54.91;101790.91;5186009;28;20399;-78
2022/07/24 04:42:01;;;;;;;19.00;8.32;;;;;;;20.65;54.70;101788.00;5183088;28;20426;-76
2022/07/24 04:44:33;;;;;;;12.63;7.53;;;;;;;20.69;54.78;101783.09;5186819;28;20589;-77
2022/07/24 04:47:06;;;;;;;14.07;7.32;;;;;;;20.72;54.93;101796.97;5186128;28;20434;-77
2022/07/24 04:49:38;;;;;;;17.85;7.85;;;;;;;20.63;54.67;101783.88;5185876;28;20411;-81
2022/07/24 04:52:11;;;;;;;13.23;6.95;;;;;;;20.79;54.61;101788.13;5181719;28;20415;-79
2022/07/24 04:54:44;;;;;;;13.68;7.07;;;;;;;20.67;54.90;101769.03;5184878;28;20449;-80
2022/07/24 04:57:16;;;;;;;12.65;6.00;;;;;;;20.86;54.73;101794.38;5184533;28;20698;-78
2022/07/24 04:59:49;;;;;;;11.00;5.82;;;;;;;20.90;54.61;101798.31;5184221;28;20427;-79
2022/07/24 05:02:21;;;;;;;10.20;5.80;;;;;;;20.90;54.64;101788.44;5180914;28;20413;-78
2022/07/24 05:04:54;;;;;;;13.15;5.22;;;;;;;20.90;54.58;101792.97;5184728;28;20461;-78
2022/07/24 05:07:26;;;;;;;8.73;4.90;;;;;;;20.71;54.86;101767.63;5188594;28;20423;-76
2022/07/24 05:10:01;;;;;;;10.20;5.07;;;;;;;20.78;54.80;101781.09;5188145;28;20956;-79
2022/07/24 05:12:33;;;;;;;6.85;4.85;;;;;;;20.89;54.67;101796.69;5185849;28;20411;-77
2022/07/24 05:15:07;;;;;;;9.55;4.90;;;;;;;20.88;54.97;101795.03;5187304;28;20415;-78
2022/07/24 05:17:40;;;;;;;8.90;4.82;;;;;;;20.90;54.91;101803.69;5188106;28;20426;-81
2022/07/24 05:20:12;;;;;;;10.50;4.68;;;;;;;20.94;54.71;101805.00;5189501;28;20431;-79
2022/07/24 05:22:44;;;;;;;13.70;4.10;;;;;;;20.95;54.85;101801.28;5189397;28;20654;-78
2022/07/24 05:25:18;;;;;;;12.10;4.38;;;;;;;21.05;54.54;101800.94;5177768;28;20507;-77
2022/07/24 05:27:51;;;;;;;10.13;4.75;;;;;;;21.10;54.60;101807.38;5185776;28;20427;-78
2022/07/24 05:30:23;;;;;;;9.40;4.93;;;;;;;21.66;53.76;101803.81;5184579;28;20505;-79
2022/07/24 05:32:55;;;;;;;8.65;4.78;;;;;;;23.02;52.36;101804.53;5187514;28;20516;-77
2022/07/24 05:35:28;;;;;;;7.05;4.57;;;;;;;24.43;50.75;101796.75;5188363;28;20554;-79
2022/07/24 05:38:00;;;;;;;9.73;3.90;;;;;;;25.61;49.32;101803.97;5186108;28;20407;-79
2022/07/24 05:40:34;;;;;;;7.75;3.63;;;;;;;26.88;47.78;101795.72;5186507;28;20915;-81
2022/07/24 05:43:06;;;;;;;9.05;3.85;;;;;;;28.13;46.17;101793.50;5186580;28;20431;-77
2022/07/24 05:45:38;;;;;;;6.32;3.10;;;;;;;29.17;44.88;101793.00;5187261;28;20549;-78
2022/07/24 05:48:11;;;;;;;6.47;2.80;;;;;;;30.03;43.68;101792.44;5189075;28;20431;-79
2022/07/24 05:50:43;;;;;;;5.47;2.85;;;;;;;30.45;42.83;101791.78;5184072;28;20425;-80
2022/07/24 05:53:15;;;;;;;6.88;3.08;;;;;;;31.02;41.91;101763.81;5183630;28;20427;-79
2022/07/24 05:55:49;;;;;;;5.53;3.03;;;;;;;32.20;40.38;101797.00;5185395;28;20520;-77
2022/07/24 05:58:21;;;;;;;5.28;2.90;;;;;;;32.94;39.42;101790.97;5185983;28;20392;-80
2022/07/24 06:00:54;;;;;;;7.68;2.78;;;;;;;33.71;38.30;101794.28;5190157;28;20439;-80
2022/07/24 06:03:26;;;;;;;7.43;2.85;;;;;;;34.55;37.33;101785.22;5184612;28;20430;-79
2022/07/24 06:05:58;;;;;;;3.75;2.30;;;;;;;35.06;36.29;101784.72;5188821;28;20411;-79
2022/07/24 06:08:31;;;;;;;9.73;3.17;;;;;;;35.38;36.14;101780.47;5184121;28;20407;-77
2022/07/24 06:11:05;;;;;;;6.47;1.92;;;;;;;35.28;35.62;101782.25;5188945;28;20819;-81
2022/07/24 06:13:37;;;;;;;8.05;2.28;;;;;;;35.02;35.52;101786.34;5185840;28;20558;-78
2022/07/24 06:16:09;;;;;;;5.30;2.50;;;;;;;34.45;35.97;101777.88;5186739;28;20443;-79
2022/07/24 06:18:42;;;;;;;3.45;1.98;;;;;;;33.89;36.13;101792.81;5186835;28;20905;-80
2022/07/24 06:21:14;;;;;;;6.15;2.40;;;;;;;33.17;36.74;101789.56;5184676;28;20914;-79
2022/07/24 06:23:46;;;;;;;6.15;2.60;;;;;;;32.44;37.13;101786.41;5185984;28;20739;-80
2022/07/24 06:26:20;;;;;;;7.35;2.80;;;;;;;31.80;37.46;101784.88;5186818;28;20419;-79
2022/07/24 06:28:52;;;;;;;4.55;2.58;;;;;;;31.18;37.81;101784.63;5181512;28;20485;-80
2022/07/24 06:31:24;;;;;;;16.85;3.67;;;;;;;30.58;38.29;101783.16;5179906;28;20431;-78
2022/07/24 06:33:57;;;;;;;11.40;3.10;;;;;;;30.24;38.57;101790.75;5182232;28;20433;-78
2022/07/24 06:36:29;;;;;;;7.85;3.08;;;;;;;29.81;38.72;101793.28;5183629;28;20426;-77
2022/07/24 06:39:01;;;;;;;13.82;3.67;;;;;;;29.38;39.07;101791.41;5175779;28;20410;-77
2022/07/24 06:41:35;;;;;;;12.43;3.25;;;;;;;29.11;39.27;101791.28;5185668;28;20429;-79
2022/07/24 06:44:07;;;;;;;11.70;3.53;;;;;;;28.84;39.35;101792.00;5188252;28;20442;-78
2022/07/24 06:46:40;;;;;;;8.90;3.00;;;;;;;28.71;39.47;101804.03;5185463;28;20933;-78
2022/07/24 06:49:12;;;;;;;33.00;5.53;;;;;;;28.66;39.55;101795.78;5188724;28;20477;-79
2022/07/24 06:51:44;;;;;;;6.10;3.00;;;;;;;28.61;39.62;101803.03;5185935;28;20417;-80
2022/07/24 06:54:17;;;;;;;15.30;4.25;;;;;;;28.38;39.67;101793.94;5183907;28;20836;-81
2022/07/24 06:56:50;;;;;;;7.35;2.75;;;;;;;28.20;39.81;101788.72;5188673;28;20435;-81
2022/07/24 06:59:23;;;;;;;6.13;3.00;;;;;;;28.33;39.82;101790.31;5189452;28;20449;-81
2022/07/24 07:01:56;;;;;;;9.02;2.80;;;;;;;28.62;39.53;101791.09;5189667;28;20414;-79
2022/07/24 07:04:28;;;;;;;7.47;3.80;;;;;;;29.41;38.83;101791.72;5188939;28;20411;-82
2022/07/24 07:07:00;;;;;;;4.63;2.70;;;;;;;29.90;38.24;101792.84;5187284;28;20611;-79
2022/07/24 07:09:35;;;;;;;5.55;2.58;;;;;;;29.99;37.93;101785.88;5186617;28;20791;-82
2022/07/24 07:12:10;;;;;;;5.40;2.33;;;;;;;30.85;37.20;101790.47;5184508;28;20425;-80
2022/07/24 07:14:42;;;;;;;4.25;2.47;;;;;;;32.04;36.25;101794.25;5183591;28;20472;-81
2022/07/24 07:17:15;;;;;;;5.10;2.00;;;;;;;32.76;35.39;101784.16;5184342;28;21143;-80
2022/07/24 07:19:48;;;;;;;6.20;2.37;;;;;;;33.56;34.78;101790.81;5185791;28;20411;-79
2022/07/24 07:22:20;;;;;;;2.85;2.15;;;;;;;34.04;34.34;101791.06;5189565;28;20419;-83
2022/07/24 07:24:53;;;;;;;4.07;1.90;;;;;;;34.40;34.12;101789.69;5188724;28;20581;-81
2022/07/24 07:27:27;;;;;;;3.85;1.70;;;;;;;34.28;34.02;101775.53;5189255;28;20837;-81
2022/07/24 07:29:59;;;;;;;3.58;1.63;;;;;;;33.93;34.19;101793.84;5186765;28;20415;-81
2022/07/24 07:32:32;;;;;;;5.80;2.03;;;;;;;33.61;34.19;101799.81;5185259;28;20423;-78
2022/07/24 07:35:05;;;;;;;5.55;1.95;;;;;;;33.96;34.08;101796.03;5189184;28;20435;-78
2022/07/24 07:37:37;;;;;;;3.50;1.77;;;;;;;34.18;33.96;101794.81;5190430;28;20501;-79
2022/07/24 07:40:11;;;;;;;2.50;1.77;;;;;;;33.92;33.71;101800.44;5189229;28;20411;-81
2022/07/24 07:42:45;;;;;;;4.35;2.08;;;;;;;33.35;34.13;101785.38;5189356;28;20421;-82
2022/07/24 07:45:17;;;;;;;5.85;1.73;;;;;;;33.19;34.14;101792.84;5189633;28;20439;-83
2022/07/24 07:47:50;;;;;;;4.97;2.20;;;;;;;32.98;34.48;101786.59;5187747;28;20441;-81
2022/07/24 07:50:22;;;;;;;6.28;2.28;;;;;;;33.00;34.37;101789.88;5190364;28;20840;-80
2022/07/24 07:52:54;;;;;;;3.33;1.83;;;;;;;33.21;34.21;101787.91;5190041;28;20427;-80
2022/07/24 07:55:27;;;;;;;4.05;1.95;;;;;;;33.55;34.06;101790.00;5184290;28;20418;-80
2022/07/24 07:58:01;;;;;;;6.18;1.90;;;;;;;33.98;33.39;101771.09;5187817;28;20406;-80
2022/07/24 08:00:34;;;;;;;3.47;1.92;;;;;;;34.51;33.35;101784.13;5183275;28;20496;-79
2022/07/24 08:03:07;;;;;;;3.78;1.83;;;;;;;34.64;33.11;101756.03;5186509;28;20443;-78
2022/07/24 08:05:39;;;;;;;3.20;1.55;;;;;;;34.68;33.11;101757.09;5187244;28;20407;-80
2022/07/24 08:08:12;;;;;;;5.87;1.57;;;;;;;34.68;33.01;101767.25;5186442;28;20501;-80
2022/07/24 08:10:44;;;;;;;3.40;1.55;;;;;;;34.53;33.40;101777.28;5187386;28;20439;-79
2022/07/24 08:13:19;;;;;;;3.58;1.45;;;;;;;34.53;33.39;101779.16;5192824;28;20430;-81
2022/07/24 08:15:51;;;;;;;6.82;1.70;;;;;;;34.34;33.53;101781.78;5188213;28;20827;-79
2022/07/24 08:18:24;;;;;;;3.65;1.25;;;;;;;34.32;33.76;101765.66;5175182;28;20508;-80
2022/07/24 08:20:56;;;;;;;2.67;1.55;;;;;;;34.75;33.40;101774.03;5186114;28;20501;-80
2022/07/24 08:23:29;;;;;;;4.53;1.60;;;;;;;35.14;33.04;101784.06;5189743;28;20525;-81
2022/07/24 08:26:01;;;;;;;4.32;1.80;;;;;;;35.20;32.74;101763.66;5185217;28;20782;-76
2022/07/24 08:28:35;;;;;;;6.30;1.58;;;;;;;35.41;32.84;101771.66;5186756;28;20502;-80
2022/07/24 08:31:07;;;;;;;3.70;1.50;;;;;;;35.41;32.55;101766.97;5186504;28;20411;-81
2022/07/24 08:33:39;;;;;;;3.47;1.70;;;;;;;35.48;32.49;101777.59;5187160;28;20446;-81
2022/07/24 08:36:12;;;;;;;1.80;1.30;;;;;;;35.48;32.59;101785.81;5184092;28;20522;-78
2022/07/24 08:38:44;;;;;;;5.95;1.58;;;;;;;34.99;32.87;101789.69;5186976;28;20962;-79
2022/07/24 08:41:18;;;;;;;4.85;1.30;;;;;;;34.57;33.33;101772.84;5184952;28;20466;-80
2022/07/24 08:43:53;;;;;;;10.32;1.65;;;;;;;34.26;33.11;101783.25;5180745;28;20929;-81
2022/07/24 08:46:27;;;;;;;4.63;1.60;;;;;;;34.28;33.05;101789.25;5169215;28;20428;-80
2022/07/24 08:49:00;;;;;;;3.47;1.45;;;;;;;34.23;33.08;101767.38;5168979;28;20479;-80
2022/07/24 08:51:35;;;;;;;3.80;1.70;;;;;;;34.46;32.55;101768.53;5189236;28;24759;-82
2022/07/24 08:54:09;;;;;;;3.30;1.40;;;;;;;34.67;32.48;101749.16;5188324;28;20635;-80
2022/07/24 08:56:42;;;;;;;2.97;1.50;;;;;;;35.03;31.90;101757.81;5177410;28;20410;-79
2022/07/24 08:59:21;;;;;;;4.07;1.70;;;;;;;34.96;31.93;101768.31;5187769;28;20510;-79
2022/07/24 09:01:54;;;;;;;2.03;1.30;;;;;;;34.57;32.57;101761.88;5184478;28;20508;-79
2022/07/24 09:04:38;;;;;;;2.17;1.65;;;;;;;34.17;32.64;101768.50;5187989;28;20422;-80
2022/07/24 09:07:13;;;;;;;3.53;1.75;;;;;;;33.78;32.89;101772.03;5182939;28;20407;-77
2022/07/24 09:10:02;;;;;;;2.07;1.30;;;;;;;33.31;33.21;101745.97;5187225;28;20433;-79
2022/07/24 09:12:38;;;;;;;4.70;1.83;;;;;;;33.58;33.03;101767.50;5182683;28;20407;-77
2022/07/24 09:15:17;;;;;;;3.60;1.52;;;;;;;33.69;32.83;101763.59;5174654;28;20519;-79
2022/07/24 09:17:53;;;;;;;2.50;1.50;;;;;;;33.47;32.66;101742.06;5182081;28;20491;-78
2022/07/24 09:20:28;;;;;;;2.93;1.80;;;;;;;33.45;32.95;101741.53;5178477;28;20642;-76
2022/07/24 09:23:01;;;;;;;7.13;1.70;;;;;;;33.57;32.78;101770.50;5183746;28;20741;-77
2022/07/24 09:25:36;;;;;;;4.13;1.40;;;;;;;33.49;32.61;101752.75;5182410;28;20767;-76
2022/07/24 09:28:09;;;;;;;2.92;1.67;;;;;;;33.46;32.86;101754.13;5183962;28;21135;-76
2022/07/24 09:30:45;;;;;;;5.30;1.63;;;;;;;33.31;32.79;101754.19;5184059;28;20764;-76
2022/07/24 09:33:21;;;;;;;4.25;1.42;;;;;;;33.31;32.60;101765.13;5182884;28;20434;-78
2022/07/24 09:35:54;;;;;;;3.63;1.63;;;;;;;33.09;32.65;101759.22;5184198;28;20469;-77
2022/07/24 09:38:27;;;;;;;4.88;1.52;;;;;;;33.09;32.51;101762.78;5184557;28;20478;-76
2022/07/24 09:41:01;;;;;;;2.27;1.50;;;;;;;33.21;32.40;101756.97;5184464;28;20442;-76
2022/07/24 09:43:36;;;;;;;3.30;1.48;;;;;;;33.15;32.12;101730.72;5180528;28;20509;-77
2022/07/24 09:46:13;;;;;;;1.83;1.33;;;;;;;33.06;31.99;101719.53;5185138;28;20411;-76
2022/07/24 09:48:54;;;;;;;2.70;1.60;;;;;;;33.39;32.00;101761.81;5182788;28;20871;-77
2022/07/24 09:51:29;;;;;;;3.22;1.73;;;;;;;33.32;32.21;101764.03;5185582;28;20418;-75
2022/07/24 09:54:03;;;;;;;4.57;1.73;;;;;;;32.85;32.62;101754.31;5181341;28;20490;-73
2022/07/24 09:56:37;;;;;;;3.17;1.98;;;;;;;32.45;32.70;101764.22;5187633;28;20569;-75
2022/07/24 09:59:13;;;;;;;3.65;1.90;;;;;;;32.10;32.88;101754.91;5185905;28;20413;-79
2022/07/24 10:04:23;;;;;;;5.85;1.95;;;;;;;31.75;33.29;101736.56;5188490;28;20410;-55
2022/07/24 10:06:55;;;;;;;4.93;2.38;;;;;;;31.88;32.93;101752.41;5190091;28;20425;-55
2022/07/24 10:09:29;;;;;;;3.70;1.45;;;;;;;32.01;33.05;101740.16;5189416;28;21066;-56
2022/07/24 10:12:06;;;;;;;2.55;1.67;;;;;;;32.09;32.87;101736.06;5183024;28;20443;-52
2022/07/24 10:14:39;;;;;;;2.33;1.75;;;;;;;32.08;32.68;101745.34;5189845;28;20502;-54
2022/07/24 10:17:13;;;;;;;1.98;1.65;;;;;;;32.11;32.86;101737.41;5189978;28;20415;-55
2022/07/24 10:19:50;;;;;;;2.47;1.53;;;;;;;32.22;32.47;101745.63;5186566;28;20426;-56
2022/07/24 10:22:25;;;;;;;2.60;1.65;;;;;;;32.33;32.41;101741.78;5187460;28;20406;-54
2022/07/24 10:25:00;;;;;;;3.83;1.65;;;;;;;32.41;32.49;101743.16;5183564;28;20431;-54
2022/07/24 10:27:34;;;;;;;2.83;1.80;;;;;;;32.50;32.47;101730.59;5186788;28;20486;-54
2022/07/24 10:30:09;;;;;;;8.73;2.00;;;;;;;32.65;32.23;101743.44;5184836;28;20423;-55
2022/07/24 10:32:42;;;;;;;6.50;1.58;;;;;;;32.73;32.12;101753.81;5187872;28;20417;-56
2022/07/24 10:35:21;;;;;;;5.90;1.42;;;;;;;32.74;31.97;101733.56;5175280;28;20427;-51
2022/07/24 10:38:01;;;;;;;3.88;1.60;;;;;;;32.87;32.07;101738.47;5174025;28;20428;-55
2022/07/24 10:40:43;;;;;;;3.90;1.40;;;;;;;32.98;31.50;101726.38;5172817;28;20841;-53
2022/07/24 10:43:17;;;;;;;2.33;1.40;;;;;;;33.16;31.44;101735.09;5171491;28;20433;-51
2022/07/24 10:46:14;;;;;;;1.97;1.37;;;;;;;33.19;31.45;101742.75;5171667;28;20486;-52
2022/07/24 10:48:46;;;;;;;2.40;1.40;;;;;;;33.26;31.27;101737.78;5174606;28;20989;-52
2022/07/24 10:51:24;;;;;;;5.80;1.92;;;;;;;33.37;31.06;101733.91;5184206;28;20526;-55
2022/07/24 10:53:57;;;;;;;3.25;1.52;;;;;;;33.32;31.43;101736.66;5184867;28;20911;-52
2022/07/24 10:56:41;;;;;;;4.50;1.48;;;;;;;33.21;31.12;101729.59;5184353;28;20430;-52
2022/07/24 10:59:14;;;;;;;3.47;1.40;;;;;;;33.23;31.01;101722.75;5184754;28;20499;-55
2022/07/24 11:01:51;;;;;;;2.75;1.52;;;;;;;33.33;30.79;101732.03;5183330;28;20423;-50
2022/07/24 11:04:30;;;;;;;4.95;1.52;;;;;;;33.30;31.02;101730.66;5186202;28;20425;-51
2022/07/24 11:07:12;;;;;;;4.57;1.52;;;;;;;33.36;30.85;101728.72;5182148;28;20407;-51
2022/07/24 11:10:02;;;;;;;4.55;1.30;;;;;;;33.48;30.75;101730.00;5186568;28;20418;-52
2022/07/24 11:12:41;;;;;;;4.13;1.50;;;;;;;33.58;30.46;101718.22;5177352;28;20799;-52
2022/07/24 11:18:15;;;;;;;3.53;1.42;;;;;;;33.88;30.20;101717.19;5181733;28;20415;-54
2022/07/24 11:20:47;;;;;;;3.58;1.00;;;;;;;34.01;29.95;101714.91;5183548;28;20419;-55
2022/07/24 11:23:22;;;;;;;6.63;1.10;;;;;;;34.12;29.97;101716.47;5183109;28;20908;-53
2022/07/24 11:26:41;;;;;;;7.47;1.48;;;;;;;34.12;30.05;101716.47;5183741;28;20525;-52
2022/07/24 11:32:00;;;;;;;2.85;1.40;;;;;;;34.09;29.93;101720.59;5155454;28;20408;-51
2022/07/24 11:34:34;;;;;;;2.00;1.40;;;;;;;34.19;29.62;101700.47;5143875;28;20432;-50
2022/07/24 11:37:08;;;;;;;3.53;1.38;;;;;;;34.37;29.61;101697.03;5148370;28;20430;-52
2022/07/24 11:39:43;;;;;;;2.83;1.40;;;;;;;34.46;29.47;101708.19;5154248;28;20859;-50
2022/07/24 11:42:18;;;;;;;1.88;1.30;;;;;;;34.36;29.67;101703.63;5151921;28;20430;-54
2022/07/24 11:44:51;;;;;;;5.50;1.50;;;;;;;34.31;29.30;101709.16;5151194;28;20415;-49
2022/07/24 11:47:27;;;;;;;4.00;1.60;;;;;;;34.26;29.38;101687.28;5156898;28;20885;-54
2022/07/24 11:50:02;;;;;;;2.95;2.25;;;;;;;34.38;29.41;101709.66;5152590;28;20435;-46
2022/07/24 11:52:37;;;;;;;4.95;1.52;;;;;;;34.20;29.68;101692.00;5157905;28;20971;-51
2022/07/24 11:55:13;;;;;;;5.05;1.48;;;;;;;34.14;29.52;101708.78;5177217;23;20423;-78
2022/07/24 11:57:49;;;;;;;2.90;1.58;;;;;;;34.08;29.52;101671.56;5163253;28;20475;-79